createdAt,value
2023-04-12T00:01:02.353Z,100.00
2023-04-12T00:03:29.127Z,100.00
2023-04-12T00:05:55.577Z,100.00
2023-04-12T00:08:26.413Z,100.00
2023-04-12T00:11:00.973Z,100.00
2023-04-12T00:13:27.415Z,100.00
2023-04-12T00:15:53.705Z,100.00
2023-04-12T00:18:20.089Z,100.00
2023-04-12T00:20:46.393Z,100.00
2023-04-12T00:23:17.160Z,100.00
2023-04-12T00:25:43.498Z,100.00
2023-04-12T00:28:10.971Z,100.00
2023-04-12T00:30:37.404Z,100.00
2023-04-12T00:33:03.814Z,100.00
2023-04-12T00:35:30.425Z,100.00
2023-04-12T00:37:56.842Z,100.00
2023-04-12T00:40:23.120Z,100.00
2023-04-12T00:42:49.512Z,100.00
2023-04-12T00:45:16.230Z,100.00
2023-04-12T00:47:52.379Z,100.00
2023-04-12T00:50:18.659Z,100.00
2023-04-12T00:52:44.952Z,100.00
2023-04-12T00:55:19.142Z,100.00
2023-04-12T00:57:53.118Z,100.00
2023-04-12T01:00:19.451Z,100.00
2023-04-12T01:02:50.946Z,100.00
2023-04-12T01:05:27.229Z,100.00
2023-04-12T01:08:10.652Z,100.00
2023-04-12T01:10:55.729Z,100.00
2023-04-12T01:13:28.674Z,100.00
2023-04-12T01:15:59.316Z,100.00
2023-04-12T01:18:25.637Z,100.00
2023-04-12T01:20:54.883Z,100.00
2023-04-12T01:23:40.013Z,100.00
2023-04-12T01:26:12.666Z,100.00
2023-04-12T01:28:41.126Z,100.00
2023-04-12T01:31:08.681Z,100.00
2023-04-12T01:33:37.335Z,100.00
2023-04-12T01:36:07.577Z,100.00
2023-04-12T01:38:38.472Z,100.00
2023-04-12T01:41:04.881Z,100.00
2023-04-12T01:43:31.625Z,100.00
2023-04-12T01:45:57.919Z,100.00
2023-04-12T01:48:24.312Z,100.00
2023-04-12T01:51:07.087Z,100.00
2023-04-12T01:53:38.161Z,100.00
2023-04-12T01:56:06.640Z,100.00
2023-04-12T01:58:32.933Z,100.00
2023-04-12T02:00:59.269Z,100.00
2023-04-12T02:03:25.809Z,100.00
2023-04-12T02:05:52.257Z,100.00
2023-04-12T02:08:18.549Z,100.00
2023-04-12T02:10:44.833Z,100.00
2023-04-12T02:13:11.273Z,100.00
2023-04-12T02:15:38.440Z,100.00
2023-04-12T02:18:04.860Z,100.00
2023-04-12T02:20:31.205Z,100.00
2023-04-12T02:22:57.592Z,100.00
2023-04-12T02:25:27.322Z,100.00
2023-04-12T02:27:53.623Z,100.00
2023-04-12T02:30:20.365Z,100.00
2023-04-12T02:32:47.188Z,100.00
2023-04-12T02:35:14.231Z,100.00
2023-04-12T02:37:41.110Z,100.00
2023-04-12T02:40:13.323Z,100.00
2023-04-12T02:42:40.495Z,100.00
2023-04-12T02:45:07.113Z,100.00
2023-04-12T02:47:33.440Z,100.00
2023-04-12T02:49:59.824Z,100.00
2023-04-12T02:52:26.150Z,100.00
2023-04-12T02:54:52.740Z,100.00
2023-04-12T02:57:21.719Z,100.00
2023-04-12T02:59:53.430Z,100.00
2023-04-12T03:02:20.497Z,100.00
2023-04-12T03:04:47.250Z,100.00
2023-04-12T03:07:13.978Z,100.00
2023-04-12T03:09:42.460Z,100.00
2023-04-12T03:12:08.771Z,100.00
2023-04-12T03:14:35.112Z,100.00
2023-04-12T03:17:01.534Z,100.00
2023-04-12T03:19:29.009Z,100.00
2023-04-12T03:21:55.493Z,100.00
2023-04-12T03:24:21.787Z,100.00
2023-04-12T03:26:48.101Z,100.00
2023-04-12T03:29:14.442Z,100.00
2023-04-12T03:31:40.946Z,100.00
2023-04-12T03:34:08.273Z,100.00
2023-04-12T03:36:34.844Z,100.00
2023-04-12T03:39:04.237Z,100.00
2023-04-12T03:41:30.610Z,100.00
2023-04-12T03:43:57.146Z,100.00
2023-04-12T03:46:34.198Z,100.00
2023-04-12T03:49:00.741Z,100.00
2023-04-12T03:51:27.113Z,100.00
2023-04-12T03:53:54.397Z,100.00
2023-04-12T03:56:20.857Z,100.00
2023-04-12T03:58:47.356Z,100.00
2023-04-12T04:01:13.831Z,100.00
2023-04-12T04:03:40.992Z,100.00
2023-04-12T04:06:07.705Z,100.00
2023-04-12T04:08:34.140Z,100.00
2023-04-12T04:11:00.764Z,100.00
2023-04-12T04:13:27.097Z,100.00
2023-04-12T04:15:59.130Z,100.00
2023-04-12T04:18:25.598Z,100.00
2023-04-12T04:20:52.077Z,100.00
2023-04-12T04:23:18.449Z,100.00
2023-04-12T04:25:45.318Z,100.00
2023-04-12T04:28:11.625Z,100.00
2023-04-12T04:30:40.856Z,100.00
2023-04-12T04:33:07.730Z,100.00
2023-04-12T04:35:34.049Z,100.00
2023-04-12T04:38:03.416Z,100.00
2023-04-12T04:40:29.712Z,100.00
2023-04-12T04:42:56.795Z,100.00
2023-04-12T04:45:26.640Z,100.00
2023-04-12T04:47:56.524Z,100.00
2023-04-12T04:50:23.254Z,100.00
2023-04-12T04:52:50.923Z,100.00
2023-04-12T04:55:25.299Z,100.00
2023-04-12T04:57:51.880Z,100.00
2023-04-12T05:00:18.891Z,100.00
2023-04-12T05:02:45.604Z,100.00
2023-04-12T05:05:16.006Z,100.00
2023-04-12T05:07:43.450Z,100.00
2023-04-12T05:10:10.599Z,100.00
2023-04-12T05:12:37.283Z,100.00
2023-04-12T05:15:11.657Z,100.00
2023-04-12T05:17:38.699Z,100.00
2023-04-12T05:20:08.121Z,100.00
2023-04-12T05:22:35.517Z,100.00
2023-04-12T05:25:02.624Z,100.00
2023-04-12T05:27:29.170Z,100.00
2023-04-12T05:29:57.935Z,100.00
2023-04-12T05:32:24.753Z,100.00
2023-04-12T05:34:51.071Z,100.00
2023-04-12T05:37:17.377Z,100.00
2023-04-12T05:39:43.694Z,100.00
2023-04-12T05:42:10.088Z,100.00
2023-04-12T05:44:36.839Z,100.00
2023-04-12T05:47:03.673Z,100.00
2023-04-12T05:49:31.230Z,100.00
2023-04-12T05:51:57.982Z,100.00
2023-04-12T05:54:25.333Z,100.00
2023-04-12T05:56:54.518Z,100.00
2023-04-12T05:59:20.831Z,100.00
2023-04-12T06:01:47.226Z,100.00
2023-04-12T06:04:14.652Z,100.00
2023-04-12T06:06:41.118Z,100.00
2023-04-12T06:09:07.463Z,100.00
2023-04-12T06:11:33.844Z,100.00
2023-04-12T06:14:00.679Z,100.00
2023-04-12T06:16:27.337Z,100.00
2023-04-12T06:18:53.668Z,100.00
2023-04-12T06:21:20.276Z,100.00
2023-04-12T06:23:46.590Z,100.00
2023-04-12T06:26:12.901Z,100.00
2023-04-12T06:28:39.171Z,100.00
2023-04-12T06:31:05.692Z,100.00
2023-04-12T06:33:31.971Z,100.00
2023-04-12T06:35:58.491Z,100.00
2023-04-12T06:38:24.816Z,100.00
2023-04-12T06:40:51.393Z,100.00
2023-04-12T06:43:20.194Z,100.00
2023-04-12T06:45:46.702Z,100.00
2023-04-12T06:48:12.985Z,100.00
2023-04-12T06:50:39.488Z,100.00
2023-04-12T06:53:06.241Z,100.00
2023-04-12T06:55:32.558Z,100.00
2023-04-12T06:58:01.466Z,100.00
2023-04-12T07:00:27.835Z,100.00
2023-04-12T07:02:54.365Z,100.00
2023-04-12T07:05:21.258Z,100.00
2023-04-12T07:07:47.554Z,100.00
2023-04-12T07:10:13.890Z,100.00
2023-04-12T07:12:40.320Z,100.00
2023-04-12T07:15:06.817Z,100.00
2023-04-12T07:17:33.165Z,100.00
2023-04-12T07:19:59.467Z,100.00
2023-04-12T07:22:26.244Z,100.00
2023-04-12T07:24:52.753Z,100.00
2023-04-12T07:27:19.055Z,100.00
2023-04-12T07:29:45.465Z,100.00
2023-04-12T07:32:11.851Z,100.00
2023-04-12T07:34:39.390Z,100.00
2023-04-12T07:37:06.155Z,100.00
2023-04-12T07:39:34.664Z,100.00
2023-04-12T07:42:01.557Z,100.00
2023-04-12T07:44:27.938Z,100.00
2023-04-12T07:46:54.227Z,100.00
2023-04-12T07:49:21.013Z,100.00
2023-04-12T07:51:47.988Z,100.00
2023-04-12T07:54:14.492Z,100.00
2023-04-12T07:56:41.192Z,100.00
2023-04-12T07:59:07.620Z,100.00
2023-04-12T08:01:33.979Z,100.00
2023-04-12T08:04:01.580Z,100.00
2023-04-12T08:06:30.666Z,100.00
2023-04-12T08:08:58.732Z,100.00
2023-04-12T08:11:25.080Z,100.00
2023-04-12T08:13:51.529Z,100.00
2023-04-12T08:16:17.930Z,100.00
2023-04-12T08:18:44.290Z,100.00
2023-04-12T08:21:10.705Z,100.00
2023-04-12T08:23:37.073Z,100.00
2023-04-12T08:26:03.777Z,100.00
2023-04-12T08:28:30.923Z,100.00
2023-04-12T08:30:57.877Z,100.00
2023-04-12T08:33:24.274Z,100.00
2023-04-12T08:35:50.972Z,100.00
2023-04-12T08:38:17.291Z,100.00
2023-04-12T08:40:47.223Z,100.00
2023-04-12T08:43:14.055Z,100.00
2023-04-12T08:45:45.022Z,100.00
2023-04-12T08:48:11.389Z,100.00
2023-04-12T08:50:37.705Z,100.00
2023-04-12T08:53:04.086Z,100.00
2023-04-12T08:55:30.479Z,100.00
2023-04-12T08:57:57.094Z,100.00
2023-04-12T09:00:23.545Z,100.00
2023-04-12T09:02:50.496Z,100.00
2023-04-12T09:05:17.229Z,100.00
2023-04-12T09:07:43.572Z,100.00
2023-04-12T09:10:09.948Z,100.00
2023-04-12T09:12:37.850Z,100.00
2023-04-12T09:15:12.752Z,100.00
2023-04-12T09:17:40.574Z,100.00
2023-04-12T09:20:16.021Z,100.00
2023-04-12T09:22:45.154Z,100.00
2023-04-12T09:25:15.060Z,100.00
2023-04-12T09:27:48.087Z,100.00
2023-04-12T09:30:15.355Z,100.00
2023-04-12T09:32:42.182Z,100.00
2023-04-12T09:35:08.679Z,100.00
2023-04-12T09:37:35.003Z,100.00
2023-04-12T09:40:02.341Z,100.00
2023-04-12T09:42:33.745Z,100.00
2023-04-12T09:45:01.505Z,100.00
2023-04-12T09:47:39.093Z,100.00
2023-04-12T09:50:09.560Z,100.00
2023-04-12T09:52:37.797Z,100.00
2023-04-12T09:55:09.291Z,100.00
2023-04-12T09:57:40.454Z,100.00
2023-04-12T10:00:17.380Z,100.00
2023-04-12T10:02:48.366Z,100.00
2023-04-12T10:05:19.727Z,100.00
2023-04-12T10:07:46.809Z,100.00
2023-04-12T10:10:13.758Z,100.00
2023-04-12T10:12:40.946Z,100.00
2023-04-12T10:17:45.077Z,100.00
2023-04-12T10:20:11.899Z,100.00
2023-04-12T10:22:51.445Z,100.00
2023-04-12T10:25:20.879Z,100.00
2023-04-12T10:27:47.910Z,100.00
2023-04-12T10:30:20.425Z,100.00
2023-04-12T10:32:46.839Z,100.00
2023-04-12T10:35:13.253Z,100.00
2023-04-12T10:37:58.072Z,100.00
2023-04-12T10:40:24.460Z,100.00
2023-04-12T10:43:05.574Z,100.00
2023-04-12T10:45:31.872Z,100.00
2023-04-12T10:48:01.910Z,100.00
2023-04-12T10:50:30.068Z,100.00
2023-04-12T10:53:18.260Z,100.00
2023-04-12T10:55:45.277Z,100.00
2023-04-12T10:58:11.929Z,100.00
2023-04-12T11:00:56.864Z,100.00
2023-04-12T11:03:23.732Z,100.00
2023-04-12T11:06:09.266Z,100.00
2023-04-12T11:08:46.219Z,100.00
2023-04-12T11:11:22.478Z,100.00
2023-04-12T11:13:49.051Z,100.00
2023-04-12T11:16:15.521Z,100.00
2023-04-12T11:18:41.945Z,100.00
2023-04-12T11:21:08.409Z,100.00
2023-04-12T11:23:36.298Z,100.00
2023-04-12T11:26:03.427Z,100.00
2023-04-12T11:28:31.794Z,100.00
2023-04-12T11:30:59.521Z,100.00
2023-04-12T11:33:39.020Z,100.00
2023-04-12T11:36:14.430Z,100.00
2023-04-12T11:38:41.128Z,100.00
2023-04-12T11:41:08.217Z,100.00
2023-04-12T11:43:34.924Z,100.00
2023-04-12T11:46:01.428Z,100.00
2023-04-12T11:48:28.183Z,100.00
2023-04-12T11:51:07.606Z,100.00
2023-04-12T11:53:37.509Z,100.00
2023-04-12T11:56:03.911Z,100.00
2023-04-12T11:58:30.427Z,100.00
2023-04-12T12:00:59.891Z,100.00
2023-04-12T12:03:26.634Z,100.00
2023-04-12T12:05:53.683Z,100.00
2023-04-12T12:08:20.193Z,100.00
2023-04-12T12:13:18.565Z,100.00
2023-04-12T12:15:45.619Z,100.00
2023-04-12T12:18:12.074Z,100.00
2023-04-12T12:20:48.804Z,96.31
2023-04-12T12:23:30.882Z,92.19
2023-04-12T12:26:14.345Z,93.10
2023-04-12T12:28:44.783Z,86.83
2023-04-12T12:31:12.594Z,81.63
2023-04-12T12:33:46.622Z,76.49
2023-04-12T12:36:16.925Z,85.08
2023-04-12T12:38:43.299Z,95.58
2023-04-12T12:41:16.853Z,86.69
2023-04-12T12:43:50.192Z,71.48
2023-04-12T12:46:18.581Z,72.44
2023-04-12T12:48:45.613Z,73.22
2023-04-12T12:51:12.850Z,67.33
2023-04-12T12:53:39.831Z,70.06
2023-04-12T12:56:06.679Z,69.05
2023-04-12T12:58:33.008Z,81.42
2023-04-12T13:00:59.510Z,86.47
2023-04-12T13:03:26.164Z,95.21
2023-04-12T13:05:52.775Z,87.82
2023-04-12T13:08:19.093Z,93.93
2023-04-12T13:10:45.884Z,90.68
2023-04-12T13:13:12.207Z,100.00
2023-04-12T13:15:38.524Z,100.00
2023-04-12T13:18:04.921Z,100.00
2023-04-12T13:20:31.471Z,88.39
2023-04-12T13:22:57.790Z,88.47
2023-04-12T13:25:26.245Z,100.00
2023-04-12T13:27:52.647Z,100.00
2023-04-12T13:30:19.218Z,100.00
2023-04-12T13:32:45.701Z,100.00
2023-04-12T13:35:12.159Z,100.00
2023-04-12T13:37:38.489Z,100.00
2023-04-12T13:40:05.048Z,100.00
2023-04-12T13:42:32.201Z,100.00
2023-04-12T13:44:58.717Z,100.00
2023-04-12T13:47:26.392Z,100.00
2023-04-12T13:49:54.194Z,100.00
2023-04-12T13:52:20.872Z,100.00
2023-04-12T13:54:47.164Z,100.00
2023-04-12T13:57:13.570Z,100.00
2023-04-12T13:59:39.893Z,100.00
2023-04-12T14:02:06.361Z,100.00
2023-04-12T14:04:32.725Z,100.00
2023-04-12T14:06:59.128Z,100.00
2023-04-12T14:09:26.125Z,100.00
2023-04-12T14:11:55.103Z,100.00
2023-04-12T14:14:25.213Z,100.00
2023-04-12T14:16:53.450Z,100.00
2023-04-12T14:19:22.354Z,100.00
2023-04-12T14:21:48.873Z,100.00
2023-04-12T14:24:16.066Z,100.00
2023-04-12T14:26:42.593Z,100.00
2023-04-12T14:29:09.627Z,100.00
2023-04-12T14:31:36.313Z,100.00
2023-04-12T14:34:03.277Z,100.00
2023-04-12T14:36:30.081Z,100.00
2023-04-12T14:38:56.702Z,100.00
2023-04-12T14:41:23.189Z,100.00
2023-04-12T14:43:49.822Z,100.00
2023-04-12T14:46:16.608Z,100.00
2023-04-12T14:48:43.105Z,100.00
2023-04-12T14:51:09.386Z,100.00
2023-04-12T14:53:35.682Z,100.00
2023-04-12T14:56:02.567Z,100.00
2023-04-12T14:58:29.880Z,100.00
2023-04-12T15:00:56.797Z,100.00
2023-04-12T15:03:26.706Z,100.00
2023-04-12T15:05:53.289Z,100.00
2023-04-12T15:08:19.921Z,100.00
2023-04-12T15:10:46.499Z,100.00
2023-04-12T15:13:12.782Z,100.00
2023-04-12T15:15:39.332Z,100.00
2023-04-12T15:18:05.897Z,100.00
2023-04-12T15:20:32.433Z,100.00
2023-04-12T15:22:58.745Z,100.00
2023-04-12T15:25:25.156Z,100.00
2023-04-12T15:27:51.572Z,100.00
2023-04-12T15:30:17.869Z,100.00
2023-04-12T15:32:44.206Z,100.00
2023-04-12T15:35:25.204Z,100.00
2023-04-12T15:37:53.683Z,100.00
2023-04-12T15:40:21.078Z,100.00
2023-04-12T15:42:49.866Z,100.00
2023-04-12T15:45:16.418Z,100.00
2023-04-12T15:47:42.858Z,100.00
2023-04-12T15:50:09.635Z,100.00
2023-04-12T15:52:36.359Z,100.00
2023-04-12T15:55:05.291Z,100.00
2023-04-12T15:57:32.334Z,100.00
2023-04-12T15:59:59.910Z,100.00
2023-04-12T16:02:26.501Z,100.00
2023-04-12T16:04:55.778Z,100.00
2023-04-12T16:07:22.426Z,100.00
2023-04-12T16:09:48.750Z,100.00
2023-04-12T16:12:15.080Z,100.00
2023-04-12T16:14:41.917Z,100.00
2023-04-12T16:17:10.677Z,100.00
2023-04-12T16:19:37.453Z,100.00
2023-04-12T16:22:06.254Z,100.00
2023-04-12T16:24:33.808Z,100.00
2023-04-12T16:27:00.520Z,100.00
2023-04-12T16:29:27.132Z,100.00
2023-04-12T16:31:53.502Z,100.00
2023-04-12T16:34:21.884Z,100.00
2023-04-12T16:36:48.576Z,100.00
2023-04-12T16:39:14.891Z,100.00
2023-04-12T16:41:41.548Z,100.00
2023-04-12T16:44:07.948Z,100.00
2023-04-12T16:46:34.240Z,100.00
2023-04-12T16:49:03.594Z,100.00
2023-04-12T16:51:36.752Z,100.00
2023-04-12T16:54:03.749Z,100.00
2023-04-12T16:56:30.071Z,100.00
2023-04-12T16:58:56.456Z,100.00
2023-04-12T17:01:25.191Z,100.00
2023-04-12T17:03:51.584Z,100.00
2023-04-12T17:06:19.471Z,100.00
2023-04-12T17:08:46.520Z,100.00
2023-04-12T17:11:12.816Z,100.00
2023-04-12T17:13:39.183Z,100.00
2023-04-12T17:16:05.881Z,100.00
2023-04-12T17:18:33.440Z,100.00
2023-04-12T17:20:59.780Z,100.00
2023-04-12T17:23:26.062Z,100.00
2023-04-12T17:25:52.492Z,100.00
2023-04-12T17:28:19.398Z,100.00
2023-04-12T17:30:45.959Z,100.00
2023-04-12T17:33:12.469Z,100.00
2023-04-12T17:35:40.477Z,100.00
2023-04-12T17:38:07.212Z,100.00
2023-04-12T17:40:33.528Z,100.00
2023-04-12T17:42:59.838Z,100.00
2023-04-12T17:45:26.560Z,100.00
2023-04-12T17:47:54.608Z,100.00
2023-04-12T17:50:22.227Z,100.00
2023-04-12T17:52:48.959Z,100.00
2023-04-12T17:55:19.229Z,100.00
2023-04-12T17:57:45.706Z,100.00
2023-04-12T18:00:12.222Z,100.00
2023-04-12T18:02:38.826Z,100.00
2023-04-12T18:05:05.647Z,100.00
2023-04-12T18:07:32.670Z,100.00
2023-04-12T18:09:58.976Z,100.00
2023-04-12T18:12:25.267Z,100.00
2023-04-12T18:14:51.549Z,100.00
2023-04-12T18:17:18.198Z,100.00
2023-04-12T18:19:44.641Z,100.00
2023-04-12T18:22:12.897Z,100.00
2023-04-12T18:24:39.433Z,100.00
2023-04-12T18:27:07.357Z,100.00
2023-04-12T18:29:33.752Z,100.00
2023-04-12T18:32:07.657Z,100.00
2023-04-12T18:34:33.991Z,100.00
2023-04-12T18:37:00.456Z,100.00
2023-04-12T18:39:30.581Z,100.00
2023-04-12T18:44:37.785Z,100.00
2023-04-12T18:47:04.225Z,100.00
2023-04-12T18:49:33.715Z,100.00
2023-04-12T18:52:00.143Z,100.00
2023-04-12T18:54:32.578Z,100.00
2023-04-12T18:57:04.298Z,100.00
2023-04-12T18:59:31.140Z,100.00
2023-04-12T19:01:57.779Z,100.00
2023-04-12T19:04:24.291Z,100.00
2023-04-12T19:06:50.809Z,100.00
2023-04-12T19:09:19.381Z,100.00
2023-04-12T19:11:46.316Z,100.00
2023-04-12T19:14:12.948Z,100.00
2023-04-12T19:16:39.512Z,100.00
2023-04-12T19:19:08.377Z,100.00
2023-04-12T19:21:38.476Z,100.00
2023-04-12T19:24:07.153Z,100.00
2023-04-12T19:26:36.518Z,100.00
2023-04-12T19:29:02.869Z,100.00
2023-04-12T19:31:29.249Z,100.00
2023-04-12T19:33:56.271Z,100.00
2023-04-12T19:36:25.689Z,100.00
2023-04-12T19:38:52.136Z,100.00
2023-04-12T19:41:19.751Z,100.00
2023-04-12T19:43:48.700Z,100.00
2023-04-12T19:46:16.524Z,100.00
2023-04-12T19:48:56.928Z,100.00
2023-04-12T19:51:23.368Z,100.00
2023-04-12T19:53:52.653Z,100.00
2023-04-12T19:56:29.812Z,100.00
2023-04-12T19:58:57.035Z,100.00
2023-04-12T20:01:23.606Z,100.00
2023-04-12T20:03:52.526Z,100.00
2023-04-12T20:06:19.084Z,100.00
2023-04-12T20:08:45.408Z,100.00
2023-04-12T20:11:17.931Z,100.00
2023-04-12T20:13:44.406Z,100.00
2023-04-12T20:16:11.011Z,100.00
2023-04-12T20:18:42.360Z,100.00
2023-04-12T20:21:10.134Z,100.00
2023-04-12T20:23:36.928Z,100.00
2023-04-12T20:26:03.895Z,100.00
2023-04-12T20:28:32.599Z,100.00
2023-04-12T20:31:00.811Z,100.00
2023-04-12T20:33:27.150Z,100.00
2023-04-12T20:35:54.051Z,100.00
2023-04-12T20:38:24.612Z,100.00
2023-04-12T20:40:54.602Z,100.00
2023-04-12T20:43:23.467Z,100.00
2023-04-12T20:45:50.709Z,100.00
2023-04-12T20:48:19.347Z,100.00
2023-04-12T20:50:46.202Z,100.00
2023-04-12T20:53:15.667Z,100.00
2023-04-12T20:55:42.438Z,100.00
2023-04-12T20:58:09.154Z,100.00
2023-04-12T21:01:00.029Z,100.00
2023-04-12T21:03:24.648Z,100.00
2023-04-12T21:05:52.604Z,100.00
2023-04-12T21:08:19.112Z,100.00
2023-04-12T21:10:48.194Z,100.00
2023-04-12T21:13:14.542Z,100.00
2023-04-12T21:15:43.294Z,100.00
2023-04-12T21:18:09.850Z,100.00
2023-04-12T21:20:36.199Z,100.00
2023-04-12T21:23:04.209Z,100.00
2023-04-12T21:25:31.584Z,100.00
2023-04-12T21:27:58.186Z,100.00
2023-04-12T21:30:26.820Z,100.00
2023-04-12T21:32:53.818Z,100.00
2023-04-12T21:35:23.007Z,100.00
2023-04-12T21:37:54.106Z,100.00
2023-04-12T21:40:30.776Z,100.00
2023-04-12T21:42:57.140Z,100.00
2023-04-12T21:45:24.346Z,100.00
2023-04-12T21:47:50.648Z,100.00
2023-04-12T21:50:17.070Z,100.00
2023-04-12T21:52:46.681Z,100.00
2023-04-12T21:55:15.399Z,100.00
2023-04-12T21:57:44.547Z,100.00
2023-04-12T22:00:15.710Z,100.00
2023-04-12T22:02:42.541Z,100.00
2023-04-12T22:05:09.349Z,100.00
2023-04-12T22:07:35.792Z,100.00
2023-04-12T22:10:02.581Z,100.00
2023-04-12T22:12:29.114Z,100.00
2023-04-12T22:14:57.633Z,100.00
2023-04-12T22:17:24.033Z,100.00
2023-04-12T22:19:51.329Z,100.00
2023-04-12T22:22:17.706Z,100.00
2023-04-12T22:24:44.074Z,100.00
2023-04-12T22:27:10.715Z,100.00
2023-04-12T22:29:44.762Z,100.00
2023-04-12T22:32:11.197Z,100.00
2023-04-12T22:34:39.952Z,100.00
2023-04-12T22:37:16.403Z,100.00
2023-04-12T22:39:42.761Z,100.00
2023-04-12T22:42:09.086Z,100.00
2023-04-12T22:44:43.687Z,100.00
2023-04-12T22:47:10.367Z,100.00
2023-04-12T22:49:44.072Z,100.00
2023-04-12T22:52:10.483Z,100.00
2023-04-12T22:54:37.163Z,100.00
2023-04-12T22:57:04.277Z,100.00
2023-04-12T22:59:30.694Z,100.00
2023-04-12T23:01:57.099Z,100.00
2023-04-12T23:04:26.367Z,100.00
2023-04-12T23:06:55.026Z,100.00
2023-04-12T23:09:22.540Z,100.00
2023-04-12T23:12:00.001Z,100.00
2023-04-12T23:14:32.024Z,100.00
2023-04-12T23:16:58.322Z,100.00
2023-04-12T23:19:24.682Z,100.00
2023-04-12T23:21:51.033Z,100.00
2023-04-12T23:24:17.728Z,100.00
2023-04-12T23:26:47.767Z,100.00
2023-04-12T23:29:14.269Z,100.00
2023-04-12T23:31:41.158Z,100.00
2023-04-12T23:34:07.516Z,100.00
2023-04-12T23:36:33.880Z,100.00
2023-04-12T23:39:00.362Z,100.00
2023-04-12T23:41:27.446Z,100.00
2023-04-12T23:43:57.101Z,100.00
2023-04-12T23:46:23.754Z,100.00
2023-04-12T23:48:54.385Z,100.00
2023-04-12T23:51:21.957Z,100.00
2023-04-12T23:53:50.965Z,100.00
2023-04-12T23:56:18.548Z,100.00
2023-04-12T23:58:54.218Z,100.00
